sensor_id;sensor_type;location;lat;lon;timestamp;P1;durP1;ratioP1;P2;durP2;ratioP2
23702;SDS011;12030;50.376;8.762;2023-05-07T00:00:33;3.23;;;2.17;;
23702;SDS011;12030;50.376;8.762;2023-05-07T00:02:59;2.80;;;2.00;;
23702;SDS011;12030;50.376;8.762;2023-05-07T00:05:24;2.37;;;2.03;;
23702;SDS011;12030;50.376;8.762;2023-05-07T00:07:50;2.83;;;2.10;;
23702;SDS011;12030;50.376;8.762;2023-05-07T00:10:17;2.93;;;2.20;;
23702;SDS011;12030;50.376;8.762;2023-05-07T00:12:44;2.70;;;2.00;;
23702;SDS011;12030;50.376;8.762;2023-05-07T00:15:10;5.23;;;2.40;;
23702;SDS011;12030;50.376;8.762;2023-05-07T00:17:36;3.37;;;2.13;;
23702;SDS011;12030;50.376;8.762;2023-05-07T00:20:04;2.03;;;1.83;;
23702;SDS011;12030;50.376;8.762;2023-05-07T00:22:30;2.77;;;2.30;;
23702;SDS011;12030;50.376;8.762;2023-05-07T00:24:57;3.23;;;2.20;;
23702;SDS011;12030;50.376;8.762;2023-05-07T00:27:23;3.10;;;2.00;;
23702;SDS011;12030;50.376;8.762;2023-05-07T00:29:50;2.30;;;2.10;;
23702;SDS011;12030;50.376;8.762;2023-05-07T00:32:17;2.27;;;2.07;;
23702;SDS011;12030;50.376;8.762;2023-05-07T00:34:43;3.83;;;2.30;;
23702;SDS011;12030;50.376;8.762;2023-05-07T00:37:09;4.23;;;2.53;;
23702;SDS011;12030;50.376;8.762;2023-05-07T00:39:36;2.97;;;2.40;;
23702;SDS011;12030;50.376;8.762;2023-05-07T00:42:02;3.27;;;2.33;;
23702;SDS011;12030;50.376;8.762;2023-05-07T00:44:29;6.10;;;2.30;;
23702;SDS011;12030;50.376;8.762;2023-05-07T00:46:55;2.43;;;2.23;;
23702;SDS011;12030;50.376;8.762;2023-05-07T00:49:22;3.57;;;2.40;;
23702;SDS011;12030;50.376;8.762;2023-05-07T00:51:55;2.83;;;2.30;;
23702;SDS011;12030;50.376;8.762;2023-05-07T00:54:21;3.47;;;2.40;;
23702;SDS011;12030;50.376;8.762;2023-05-07T00:56:47;2.30;;;2.10;;
23702;SDS011;12030;50.376;8.762;2023-05-07T00:59:13;2.70;;;2.30;;
23702;SDS011;12030;50.376;8.762;2023-05-07T01:01:39;4.27;;;2.40;;
23702;SDS011;12030;50.376;8.762;2023-05-07T01:04:04;2.83;;;2.27;;
23702;SDS011;12030;50.376;8.762;2023-05-07T01:06:30;4.77;;;3.20;;
23702;SDS011;12030;50.376;8.762;2023-05-07T01:08:58;2.83;;;2.40;;
23702;SDS011;12030;50.376;8.762;2023-05-07T01:11:24;2.83;;;2.30;;
23702;SDS011;12030;50.376;8.762;2023-05-07T01:13:51;3.37;;;2.50;;
23702;SDS011;12030;50.376;8.762;2023-05-07T01:16:17;2.33;;;2.13;;
23702;SDS011;12030;50.376;8.762;2023-05-07T01:18:42;3.50;;;2.93;;
23702;SDS011;12030;50.376;8.762;2023-05-07T01:21:10;3.77;;;2.70;;
23702;SDS011;12030;50.376;8.762;2023-05-07T01:23:36;3.23;;;2.93;;
23702;SDS011;12030;50.376;8.762;2023-05-07T01:26:03;3.17;;;2.27;;
23702;SDS011;12030;50.376;8.762;2023-05-07T01:28:29;3.53;;;2.90;;
23702;SDS011;12030;50.376;8.762;2023-05-07T01:30:54;3.80;;;2.90;;
23702;SDS011;12030;50.376;8.762;2023-05-07T01:33:26;3.20;;;2.63;;
23702;SDS011;12030;50.376;8.762;2023-05-07T01:35:54;4.30;;;2.80;;
23702;SDS011;12030;50.376;8.762;2023-05-07T01:38:21;3.10;;;2.80;;
23702;SDS011;12030;50.376;8.762;2023-05-07T01:40:48;3.17;;;2.87;;
23702;SDS011;12030;50.376;8.762;2023-05-07T01:43:14;3.40;;;2.70;;
23702;SDS011;12030;50.376;8.762;2023-05-07T01:45:40;4.33;;;2.73;;
23702;SDS011;12030;50.376;8.762;2023-05-07T01:48:07;3.97;;;3.07;;
23702;SDS011;12030;50.376;8.762;2023-05-07T01:50:36;3.43;;;3.00;;
23702;SDS011;12030;50.376;8.762;2023-05-07T01:53:02;5.40;;;3.03;;
23702;SDS011;12030;50.376;8.762;2023-05-07T01:55:28;3.47;;;2.87;;
23702;SDS011;12030;50.376;8.762;2023-05-07T01:57:53;3.00;;;2.80;;
23702;SDS011;12030;50.376;8.762;2023-05-07T02:00:19;5.03;;;3.00;;
23702;SDS011;12030;50.376;8.762;2023-05-07T02:02:45;5.10;;;3.47;;
23702;SDS011;12030;50.376;8.762;2023-05-07T02:05:11;4.00;;;3.17;;
23702;SDS011;12030;50.376;8.762;2023-05-07T02:07:36;3.80;;;3.37;;
23702;SDS011;12030;50.376;8.762;2023-05-07T02:10:02;3.97;;;3.57;;
23702;SDS011;12030;50.376;8.762;2023-05-07T02:12:28;3.10;;;2.90;;
23702;SDS011;12030;50.376;8.762;2023-05-07T02:14:53;3.87;;;3.43;;
23702;SDS011;12030;50.376;8.762;2023-05-07T02:17:20;4.23;;;3.63;;
23702;SDS011;12030;50.376;8.762;2023-05-07T02:19:46;4.97;;;3.37;;
23702;SDS011;12030;50.376;8.762;2023-05-07T02:22:12;5.20;;;3.70;;
23702;SDS011;12030;50.376;8.762;2023-05-07T02:24:37;4.80;;;3.40;;
23702;SDS011;12030;50.376;8.762;2023-05-07T02:27:03;3.80;;;3.50;;
23702;SDS011;12030;50.376;8.762;2023-05-07T02:29:29;4.23;;;3.37;;
23702;SDS011;12030;50.376;8.762;2023-05-07T02:31:54;4.40;;;3.60;;
23702;SDS011;12030;50.376;8.762;2023-05-07T02:34:20;4.73;;;3.63;;
23702;SDS011;12030;50.376;8.762;2023-05-07T02:36:46;4.67;;;3.67;;
23702;SDS011;12030;50.376;8.762;2023-05-07T02:39:12;4.50;;;3.90;;
23702;SDS011;12030;50.376;8.762;2023-05-07T02:41:38;5.17;;;3.70;;
23702;SDS011;12030;50.376;8.762;2023-05-07T02:44:04;4.17;;;3.40;;
23702;SDS011;12030;50.376;8.762;2023-05-07T02:46:29;4.93;;;3.87;;
23702;SDS011;12030;50.376;8.762;2023-05-07T02:48:55;4.97;;;3.93;;
23702;SDS011;12030;50.376;8.762;2023-05-07T02:51:21;4.73;;;4.33;;
23702;SDS011;12030;50.376;8.762;2023-05-07T02:53:47;5.47;;;3.97;;
23702;SDS011;12030;50.376;8.762;2023-05-07T02:56:13;4.23;;;3.87;;
23702;SDS011;12030;50.376;8.762;2023-05-07T02:58:39;4.50;;;4.10;;
23702;SDS011;12030;50.376;8.762;2023-05-07T03:01:05;4.40;;;3.80;;
23702;SDS011;12030;50.376;8.762;2023-05-07T03:03:31;5.27;;;4.20;;
23702;SDS011;12030;50.376;8.762;2023-05-07T03:05:57;3.90;;;3.50;;
23702;SDS011;12030;50.376;8.762;2023-05-07T03:08:24;5.53;;;4.13;;
23702;SDS011;12030;50.376;8.762;2023-05-07T03:10:49;5.93;;;4.43;;
23702;SDS011;12030;50.376;8.762;2023-05-07T03:13:16;5.07;;;4.40;;
23702;SDS011;12030;50.376;8.762;2023-05-07T03:15:42;4.83;;;4.20;;
23702;SDS011;12030;50.376;8.762;2023-05-07T03:18:07;6.10;;;4.60;;
23702;SDS011;12030;50.376;8.762;2023-05-07T03:20:33;4.60;;;4.20;;
23702;SDS011;12030;50.376;8.762;2023-05-07T03:22:59;4.60;;;4.20;;
23702;SDS011;12030;50.376;8.762;2023-05-07T03:25:25;7.83;;;4.50;;
23702;SDS011;12030;50.376;8.762;2023-05-07T03:27:51;4.80;;;4.40;;
23702;SDS011;12030;50.376;8.762;2023-05-07T03:30:16;7.03;;;4.60;;
23702;SDS011;12030;50.376;8.762;2023-05-07T03:32:42;5.27;;;4.33;;
23702;SDS011;12030;50.376;8.762;2023-05-07T03:35:09;5.17;;;4.40;;
23702;SDS011;12030;50.376;8.762;2023-05-07T03:37:34;5.27;;;4.60;;
23702;SDS011;12030;50.376;8.762;2023-05-07T03:40:00;5.30;;;4.50;;
23702;SDS011;12030;50.376;8.762;2023-05-07T03:42:26;5.00;;;4.40;;
23702;SDS011;12030;50.376;8.762;2023-05-07T03:44:51;5.63;;;4.63;;
23702;SDS011;12030;50.376;8.762;2023-05-07T03:47:17;4.77;;;4.20;;
23702;SDS011;12030;50.376;8.762;2023-05-07T03:49:42;5.27;;;4.53;;
23702;SDS011;12030;50.376;8.762;2023-05-07T03:52:08;4.70;;;4.23;;
23702;SDS011;12030;50.376;8.762;2023-05-07T03:54:33;6.00;;;4.40;;
23702;SDS011;12030;50.376;8.762;2023-05-07T03:56:59;7.40;;;4.80;;
23702;SDS011;12030;50.376;8.762;2023-05-07T03:59:26;6.30;;;4.27;;
23702;SDS011;12030;50.376;8.762;2023-05-07T04:01:52;4.50;;;4.00;;
23702;SDS011;12030;50.376;8.762;2023-05-07T04:04:18;4.40;;;4.00;;
23702;SDS011;12030;50.376;8.762;2023-05-07T04:06:43;5.27;;;4.77;;
23702;SDS011;12030;50.376;8.762;2023-05-07T04:09:09;4.90;;;4.33;;
23702;SDS011;12030;50.376;8.762;2023-05-07T04:11:35;4.90;;;4.40;;
23702;SDS011;12030;50.376;8.762;2023-05-07T04:14:01;4.97;;;4.47;;
23702;SDS011;12030;50.376;8.762;2023-05-07T04:16:26;5.77;;;4.70;;
23702;SDS011;12030;50.376;8.762;2023-05-07T04:18:52;4.87;;;4.40;;
23702;SDS011;12030;50.376;8.762;2023-05-07T04:21:18;4.57;;;4.07;;
23702;SDS011;12030;50.376;8.762;2023-05-07T04:23:45;5.37;;;4.13;;
23702;SDS011;12030;50.376;8.762;2023-05-07T04:26:12;5.07;;;4.07;;
23702;SDS011;12030;50.376;8.762;2023-05-07T04:28:38;4.53;;;4.10;;
23702;SDS011;12030;50.376;8.762;2023-05-07T04:31:04;6.43;;;4.23;;
23702;SDS011;12030;50.376;8.762;2023-05-07T04:33:29;5.83;;;4.43;;
23702;SDS011;12030;50.376;8.762;2023-05-07T04:35:55;5.17;;;4.00;;
23702;SDS011;12030;50.376;8.762;2023-05-07T04:38:21;4.30;;;3.97;;
23702;SDS011;12030;50.376;8.762;2023-05-07T04:40:48;7.57;;;4.20;;
23702;SDS011;12030;50.376;8.762;2023-05-07T04:43:14;5.17;;;4.10;;
23702;SDS011;12030;50.376;8.762;2023-05-07T04:45:40;4.93;;;3.90;;
23702;SDS011;12030;50.376;8.762;2023-05-07T04:48:06;4.07;;;3.57;;
23702;SDS011;12030;50.376;8.762;2023-05-07T04:50:33;4.00;;;3.60;;
23702;SDS011;12030;50.376;8.762;2023-05-07T04:52:59;4.87;;;4.20;;
23702;SDS011;12030;50.376;8.762;2023-05-07T04:55:24;4.17;;;3.77;;
23702;SDS011;12030;50.376;8.762;2023-05-07T04:57:50;5.43;;;3.70;;
23702;SDS011;12030;50.376;8.762;2023-05-07T05:00:16;6.43;;;3.73;;
23702;SDS011;12030;50.376;8.762;2023-05-07T05:02:44;3.97;;;3.57;;
23702;SDS011;12030;50.376;8.762;2023-05-07T05:05:10;4.37;;;3.67;;
23702;SDS011;12030;50.376;8.762;2023-05-07T05:07:36;3.87;;;3.47;;
23702;SDS011;12030;50.376;8.762;2023-05-07T05:10:02;4.70;;;3.90;;
23702;SDS011;12030;50.376;8.762;2023-05-07T05:12:28;4.20;;;3.87;;
23702;SDS011;12030;50.376;8.762;2023-05-07T05:14:55;4.63;;;3.90;;
23702;SDS011;12030;50.376;8.762;2023-05-07T05:17:20;5.40;;;3.80;;
23702;SDS011;12030;50.376;8.762;2023-05-07T05:19:46;4.43;;;4.03;;
23702;SDS011;12030;50.376;8.762;2023-05-07T05:22:11;4.33;;;3.93;;
23702;SDS011;12030;50.376;8.762;2023-05-07T05:24:37;4.33;;;3.60;;
23702;SDS011;12030;50.376;8.762;2023-05-07T05:27:02;4.27;;;3.80;;
23702;SDS011;12030;50.376;8.762;2023-05-07T05:29:28;4.03;;;3.63;;
23702;SDS011;12030;50.376;8.762;2023-05-07T05:31:53;3.97;;;3.57;;
23702;SDS011;12030;50.376;8.762;2023-05-07T05:34:19;5.33;;;4.03;;
23702;SDS011;12030;50.376;8.762;2023-05-07T05:36:45;4.20;;;3.80;;
23702;SDS011;12030;50.376;8.762;2023-05-07T05:39:11;8.57;;;3.90;;
23702;SDS011;12030;50.376;8.762;2023-05-07T05:41:37;4.30;;;3.70;;
23702;SDS011;12030;50.376;8.762;2023-05-07T05:44:03;5.90;;;3.70;;
23702;SDS011;12030;50.376;8.762;2023-05-07T05:46:28;6.13;;;3.70;;
23702;SDS011;12030;50.376;8.762;2023-05-07T05:48:54;5.37;;;3.40;;
23702;SDS011;12030;50.376;8.762;2023-05-07T05:51:20;4.57;;;3.43;;
23702;SDS011;12030;50.376;8.762;2023-05-07T05:53:46;5.47;;;3.57;;
23702;SDS011;12030;50.376;8.762;2023-05-07T05:56:11;3.97;;;3.67;;
23702;SDS011;12030;50.376;8.762;2023-05-07T05:58:37;4.10;;;3.33;;
23702;SDS011;12030;50.376;8.762;2023-05-07T06:01:03;3.90;;;3.50;;
23702;SDS011;12030;50.376;8.762;2023-05-07T06:03:29;3.90;;;3.50;;
23702;SDS011;12030;50.376;8.762;2023-05-07T06:05:55;4.97;;;3.30;;
23702;SDS011;12030;50.376;8.762;2023-05-07T06:08:21;3.70;;;3.40;;
23702;SDS011;12030;50.376;8.762;2023-05-07T06:10:46;4.27;;;3.53;;
23702;SDS011;12030;50.376;8.762;2023-05-07T06:13:12;3.20;;;2.90;;
23702;SDS011;12030;50.376;8.762;2023-05-07T06:15:37;5.10;;;3.70;;
23702;SDS011;12030;50.376;8.762;2023-05-07T06:18:03;4.87;;;3.47;;
23702;SDS011;12030;50.376;8.762;2023-05-07T06:20:28;4.97;;;3.17;;
23702;SDS011;12030;50.376;8.762;2023-05-07T06:22:54;3.83;;;2.77;;
23702;SDS011;12030;50.376;8.762;2023-05-07T06:25:19;5.83;;;3.40;;
23702;SDS011;12030;50.376;8.762;2023-05-07T06:27:45;6.00;;;3.77;;
23702;SDS011;12030;50.376;8.762;2023-05-07T06:30:10;4.63;;;3.37;;
23702;SDS011;12030;50.376;8.762;2023-05-07T06:32:36;4.13;;;3.37;;
23702;SDS011;12030;50.376;8.762;2023-05-07T06:35:02;3.97;;;3.53;;
23702;SDS011;12030;50.376;8.762;2023-05-07T06:37:27;3.80;;;3.50;;
23702;SDS011;12030;50.376;8.762;2023-05-07T06:39:53;4.20;;;3.80;;
23702;SDS011;12030;50.376;8.762;2023-05-07T06:42:19;3.73;;;3.43;;
23702;SDS011;12030;50.376;8.762;2023-05-07T06:44:44;4.17;;;3.60;;
23702;SDS011;12030;50.376;8.762;2023-05-07T06:47:10;4.17;;;3.13;;
23702;SDS011;12030;50.376;8.762;2023-05-07T06:49:35;3.60;;;3.30;;
23702;SDS011;12030;50.376;8.762;2023-05-07T06:52:01;3.93;;;3.63;;
23702;SDS011;12030;50.376;8.762;2023-05-07T06:54:26;3.63;;;3.33;;
23702;SDS011;12030;50.376;8.762;2023-05-07T06:56:52;4.17;;;3.77;;
23702;SDS011;12030;50.376;8.762;2023-05-07T06:59:17;5.23;;;3.93;;
23702;SDS011;12030;50.376;8.762;2023-05-07T07:01:44;5.33;;;4.27;;
23702;SDS011;12030;50.376;8.762;2023-05-07T07:04:09;4.40;;;4.00;;
23702;SDS011;12030;50.376;8.762;2023-05-07T07:06:35;5.40;;;4.33;;
23702;SDS011;12030;50.376;8.762;2023-05-07T07:09:00;3.80;;;3.50;;
23702;SDS011;12030;50.376;8.762;2023-05-07T07:11:26;3.57;;;3.00;;
23702;SDS011;12030;50.376;8.762;2023-05-07T07:13:51;4.00;;;3.00;;
23702;SDS011;12030;50.376;8.762;2023-05-07T07:16:19;3.47;;;3.17;;
23702;SDS011;12030;50.376;8.762;2023-05-07T07:18:45;3.37;;;3.03;;
23702;SDS011;12030;50.376;8.762;2023-05-07T07:21:10;3.00;;;2.70;;
23702;SDS011;12030;50.376;8.762;2023-05-07T07:23:36;3.10;;;2.90;;
23702;SDS011;12030;50.376;8.762;2023-05-07T07:26:02;3.47;;;3.17;;
23702;SDS011;12030;50.376;8.762;2023-05-07T07:28:27;4.20;;;2.97;;
23702;SDS011;12030;50.376;8.762;2023-05-07T07:30:53;3.20;;;3.00;;
23702;SDS011;12030;50.376;8.762;2023-05-07T07:33:18;3.63;;;3.13;;
23702;SDS011;12030;50.376;8.762;2023-05-07T07:35:44;4.53;;;3.00;;
23702;SDS011;12030;50.376;8.762;2023-05-07T07:38:09;3.83;;;2.60;;
23702;SDS011;12030;50.376;8.762;2023-05-07T07:40:35;4.07;;;3.23;;
23702;SDS011;12030;50.376;8.762;2023-05-07T07:43:00;2.50;;;2.30;;
23702;SDS011;12030;50.376;8.762;2023-05-07T07:45:26;3.37;;;3.03;;
23702;SDS011;12030;50.376;8.762;2023-05-07T07:47:52;3.87;;;3.10;;
23702;SDS011;12030;50.376;8.762;2023-05-07T07:50:17;5.63;;;3.40;;
23702;SDS011;12030;50.376;8.762;2023-05-07T07:52:43;3.47;;;3.17;;
23702;SDS011;12030;50.376;8.762;2023-05-07T07:55:09;3.17;;;2.90;;
23702;SDS011;12030;50.376;8.762;2023-05-07T07:57:35;3.50;;;3.20;;
23702;SDS011;12030;50.376;8.762;2023-05-07T08:00:00;4.20;;;3.37;;
23702;SDS011;12030;50.376;8.762;2023-05-07T08:02:26;3.73;;;3.33;;
23702;SDS011;12030;50.376;8.762;2023-05-07T08:04:51;3.47;;;3.17;;
23702;SDS011;12030;50.376;8.762;2023-05-07T08:07:17;5.67;;;3.80;;
23702;SDS011;12030;50.376;8.762;2023-05-07T08:09:45;4.30;;;3.20;;
23702;SDS011;12030;50.376;8.762;2023-05-07T08:12:11;3.60;;;3.27;;
23702;SDS011;12030;50.376;8.762;2023-05-07T08:14:36;3.20;;;3.00;;
23702;SDS011;12030;50.376;8.762;2023-05-07T08:17:02;3.27;;;3.00;;
23702;SDS011;12030;50.376;8.762;2023-05-07T08:19:27;4.13;;;2.77;;
23702;SDS011;12030;50.376;8.762;2023-05-07T08:21:53;3.87;;;2.83;;
23702;SDS011;12030;50.376;8.762;2023-05-07T08:24:19;4.70;;;3.00;;
23702;SDS011;12030;50.376;8.762;2023-05-07T08:26:45;5.47;;;2.90;;
23702;SDS011;12030;50.376;8.762;2023-05-07T08:29:10;3.93;;;3.10;;
23702;SDS011;12030;50.376;8.762;2023-05-07T08:31:36;4.00;;;3.60;;
23702;SDS011;12030;50.376;8.762;2023-05-07T08:34:03;3.47;;;3.17;;
23702;SDS011;12030;50.376;8.762;2023-05-07T08:36:29;5.27;;;3.37;;
23702;SDS011;12030;50.376;8.762;2023-05-07T08:38:55;3.33;;;3.03;;
23702;SDS011;12030;50.376;8.762;2023-05-07T08:41:21;3.87;;;3.47;;
23702;SDS011;12030;50.376;8.762;2023-05-07T08:43:47;3.60;;;3.17;;
23702;SDS011;12030;50.376;8.762;2023-05-07T08:46:16;3.80;;;3.27;;
23702;SDS011;12030;50.376;8.762;2023-05-07T08:48:44;3.37;;;3.07;;
23702;SDS011;12030;50.376;8.762;2023-05-07T08:51:13;3.50;;;3.20;;
23702;SDS011;12030;50.376;8.762;2023-05-07T08:53:40;4.03;;;2.90;;
23702;SDS011;12030;50.376;8.762;2023-05-07T08:56:07;3.40;;;3.10;;
23702;SDS011;12030;50.376;8.762;2023-05-07T08:58:34;4.73;;;3.03;;
23702;SDS011;12030;50.376;8.762;2023-05-07T09:01:01;3.60;;;3.30;;
23702;SDS011;12030;50.376;8.762;2023-05-07T09:03:31;3.50;;;3.13;;
23702;SDS011;12030;50.376;8.762;2023-05-07T09:05:56;9.23;;;3.07;;
23702;SDS011;12030;50.376;8.762;2023-05-07T09:08:24;4.00;;;3.10;;
23702;SDS011;12030;50.376;8.762;2023-05-07T09:10:51;3.60;;;2.63;;
23702;SDS011;12030;50.376;8.762;2023-05-07T09:13:17;5.03;;;3.20;;
23702;SDS011;12030;50.376;8.762;2023-05-07T09:15:43;3.43;;;3.10;;
23702;SDS011;12030;50.376;8.762;2023-05-07T09:18:08;3.63;;;3.07;;
23702;SDS011;12030;50.376;8.762;2023-05-07T09:20:36;4.10;;;3.03;;
23702;SDS011;12030;50.376;8.762;2023-05-07T09:23:02;3.03;;;2.83;;
23702;SDS011;12030;50.376;8.762;2023-05-07T09:25:31;2.77;;;2.57;;
23702;SDS011;12030;50.376;8.762;2023-05-07T09:27:57;3.20;;;2.93;;
23702;SDS011;12030;50.376;8.762;2023-05-07T09:30:27;5.23;;;3.17;;
23702;SDS011;12030;50.376;8.762;2023-05-07T09:32:57;5.33;;;3.10;;
23702;SDS011;12030;50.376;8.762;2023-05-07T09:35:23;5.17;;;3.20;;
23702;SDS011;12030;50.376;8.762;2023-05-07T09:37:52;4.70;;;3.13;;
23702;SDS011;12030;50.376;8.762;2023-05-07T09:40:22;3.30;;;3.00;;
23702;SDS011;12030;50.376;8.762;2023-05-07T09:42:49;3.73;;;2.50;;
23702;SDS011;12030;50.376;8.762;2023-05-07T09:45:21;2.50;;;2.30;;
23702;SDS011;12030;50.376;8.762;2023-05-07T09:47:53;5.03;;;2.90;;
23702;SDS011;12030;50.376;8.762;2023-05-07T09:50:27;2.97;;;2.57;;
23702;SDS011;12030;50.376;8.762;2023-05-07T09:53:04;3.53;;;2.70;;
23702;SDS011;12030;50.376;8.762;2023-05-07T09:55:31;3.20;;;2.90;;
23702;SDS011;12030;50.376;8.762;2023-05-07T09:57:56;5.40;;;2.83;;
23702;SDS011;12030;50.376;8.762;2023-05-07T10:00:23;2.97;;;2.67;;
23702;SDS011;12030;50.376;8.762;2023-05-07T10:02:51;4.73;;;3.03;;
23702;SDS011;12030;50.376;8.762;2023-05-07T10:05:21;3.57;;;3.20;;
23702;SDS011;12030;50.376;8.762;2023-05-07T10:07:47;4.17;;;3.77;;
23702;SDS011;12030;50.376;8.762;2023-05-07T10:10:14;3.93;;;3.50;;
23702;SDS011;12030;50.376;8.762;2023-05-07T10:12:40;3.10;;;2.73;;
23702;SDS011;12030;50.376;8.762;2023-05-07T10:15:06;4.27;;;3.20;;
23702;SDS011;12030;50.376;8.762;2023-05-07T10:17:36;4.70;;;3.20;;
23702;SDS011;12030;50.376;8.762;2023-05-07T10:20:03;3.03;;;2.70;;
23702;SDS011;12030;50.376;8.762;2023-05-07T10:22:31;4.10;;;2.90;;
23702;SDS011;12030;50.376;8.762;2023-05-07T10:25:03;2.97;;;2.67;;
23702;SDS011;12030;50.376;8.762;2023-05-07T10:27:41;4.40;;;3.20;;
23702;SDS011;12030;50.376;8.762;2023-05-07T10:32:38;4.43;;;3.00;;
23702;SDS011;12030;50.376;8.762;2023-05-07T10:35:11;5.10;;;3.43;;
23702;SDS011;12030;50.376;8.762;2023-05-07T10:37:42;3.50;;;3.20;;
23702;SDS011;12030;50.376;8.762;2023-05-07T10:40:09;3.70;;;2.90;;
23702;SDS011;12030;50.376;8.762;2023-05-07T10:42:35;3.67;;;3.37;;
23702;SDS011;12030;50.376;8.762;2023-05-07T10:45:13;4.43;;;2.80;;
23702;SDS011;12030;50.376;8.762;2023-05-07T10:50:44;3.87;;;3.50;;
23702;SDS011;12030;50.376;8.762;2023-05-07T10:55:48;3.50;;;3.20;;
23702;SDS011;12030;50.376;8.762;2023-05-07T11:00:47;5.13;;;3.30;;
23702;SDS011;12030;50.376;8.762;2023-05-07T11:03:14;5.57;;;3.47;;
23702;SDS011;12030;50.376;8.762;2023-05-07T11:05:40;3.47;;;3.17;;
23702;SDS011;12030;50.376;8.762;2023-05-07T11:08:06;3.13;;;2.87;;
23702;SDS011;12030;50.376;8.762;2023-05-07T11:10:49;6.07;;;3.60;;
23702;SDS011;12030;50.376;8.762;2023-05-07T11:16:18;3.37;;;3.07;;
23702;SDS011;12030;50.376;8.762;2023-05-07T11:18:52;4.13;;;2.80;;
23702;SDS011;12030;50.376;8.762;2023-05-07T11:24:04;3.87;;;3.47;;
23702;SDS011;12030;50.376;8.762;2023-05-07T11:26:44;3.20;;;2.90;;
23702;SDS011;12030;50.376;8.762;2023-05-07T11:29:12;3.53;;;3.23;;
23702;SDS011;12030;50.376;8.762;2023-05-07T11:31:39;5.07;;;2.90;;
23702;SDS011;12030;50.376;8.762;2023-05-07T11:34:04;3.00;;;2.70;;
23702;SDS011;12030;50.376;8.762;2023-05-07T11:36:31;4.70;;;2.50;;
23702;SDS011;12030;50.376;8.762;2023-05-07T11:38:57;3.47;;;2.93;;
23702;SDS011;12030;50.376;8.762;2023-05-07T11:41:32;3.20;;;2.90;;
23702;SDS011;12030;50.376;8.762;2023-05-07T11:43:59;3.83;;;2.50;;
23702;SDS011;12030;50.376;8.762;2023-05-07T11:46:26;4.57;;;2.63;;
23702;SDS011;12030;50.376;8.762;2023-05-07T11:48:52;3.57;;;2.70;;
23702;SDS011;12030;50.376;8.762;2023-05-07T11:51:19;3.40;;;2.60;;
23702;SDS011;12030;50.376;8.762;2023-05-07T11:53:45;2.93;;;2.70;;
23702;SDS011;12030;50.376;8.762;2023-05-07T11:56:12;4.57;;;2.77;;
23702;SDS011;12030;50.376;8.762;2023-05-07T11:58:39;4.60;;;3.33;;
23702;SDS011;12030;50.376;8.762;2023-05-07T12:01:07;3.77;;;2.90;;
23702;SDS011;12030;50.376;8.762;2023-05-07T12:03:36;4.93;;;3.00;;
23702;SDS011;12030;50.376;8.762;2023-05-07T12:06:02;3.83;;;3.40;;
23702;SDS011;12030;50.376;8.762;2023-05-07T12:08:30;3.70;;;3.20;;
23702;SDS011;12030;50.376;8.762;2023-05-07T12:10:56;3.90;;;3.40;;
23702;SDS011;12030;50.376;8.762;2023-05-07T12:13:22;3.63;;;2.67;;
23702;SDS011;12030;50.376;8.762;2023-05-07T12:15:52;3.30;;;3.00;;
23702;SDS011;12030;50.376;8.762;2023-05-07T12:18:19;3.27;;;2.80;;
23702;SDS011;12030;50.376;8.762;2023-05-07T12:20:46;2.80;;;2.43;;
23702;SDS011;12030;50.376;8.762;2023-05-07T12:23:12;3.10;;;2.47;;
23702;SDS011;12030;50.376;8.762;2023-05-07T12:25:39;3.60;;;2.27;;
23702;SDS011;12030;50.376;8.762;2023-05-07T12:28:12;2.87;;;2.63;;
23702;SDS011;12030;50.376;8.762;2023-05-07T12:30:42;2.60;;;1.93;;
23702;SDS011;12030;50.376;8.762;2023-05-07T12:33:08;2.13;;;1.80;;
23702;SDS011;12030;50.376;8.762;2023-05-07T12:35:39;2.07;;;1.80;;
23702;SDS011;12030;50.376;8.762;2023-05-07T12:38:10;3.10;;;1.83;;
23702;SDS011;12030;50.376;8.762;2023-05-07T12:43:08;1.93;;;1.40;;
23702;SDS011;12030;50.376;8.762;2023-05-07T12:45:41;2.47;;;1.63;;
23702;SDS011;12030;50.376;8.762;2023-05-07T12:48:09;2.17;;;1.97;;
23702;SDS011;12030;50.376;8.762;2023-05-07T12:50:35;1.87;;;1.53;;
23702;SDS011;12030;50.376;8.762;2023-05-07T12:53:03;1.60;;;1.50;;
23702;SDS011;12030;50.376;8.762;2023-05-07T12:55:31;1.80;;;1.60;;
23702;SDS011;12030;50.376;8.762;2023-05-07T12:57:57;2.20;;;1.50;;
23702;SDS011;12030;50.376;8.762;2023-05-07T13:00:33;2.57;;;1.70;;
23702;SDS011;12030;50.376;8.762;2023-05-07T13:03:02;2.43;;;2.20;;
23702;SDS011;12030;50.376;8.762;2023-05-07T13:05:27;1.93;;;1.70;;
23702;SDS011;12030;50.376;8.762;2023-05-07T13:07:53;2.60;;;1.47;;
23702;SDS011;12030;50.376;8.762;2023-05-07T13:10:21;2.33;;;1.67;;
23702;SDS011;12030;50.376;8.762;2023-05-07T13:12:50;1.60;;;1.40;;
23702;SDS011;12030;50.376;8.762;2023-05-07T13:15:16;2.63;;;1.80;;
23702;SDS011;12030;50.376;8.762;2023-05-07T13:17:41;1.93;;;1.70;;
23702;SDS011;12030;50.376;8.762;2023-05-07T13:20:08;4.27;;;1.53;;
23702;SDS011;12030;50.376;8.762;2023-05-07T13:22:34;2.00;;;1.40;;
23702;SDS011;12030;50.376;8.762;2023-05-07T13:25:00;3.07;;;1.80;;
23702;SDS011;12030;50.376;8.762;2023-05-07T13:27:26;3.13;;;1.63;;
23702;SDS011;12030;50.376;8.762;2023-05-07T13:29:51;2.87;;;1.63;;
23702;SDS011;12030;50.376;8.762;2023-05-07T13:32:17;3.47;;;1.67;;
23702;SDS011;12030;50.376;8.762;2023-05-07T13:34:42;2.13;;;1.63;;
23702;SDS011;12030;50.376;8.762;2023-05-07T13:37:08;1.63;;;1.53;;
23702;SDS011;12030;50.376;8.762;2023-05-07T13:39:33;1.63;;;1.50;;
23702;SDS011;12030;50.376;8.762;2023-05-07T13:41:59;2.13;;;1.53;;
23702;SDS011;12030;50.376;8.762;2023-05-07T13:44:25;2.20;;;1.67;;
23702;SDS011;12030;50.376;8.762;2023-05-07T13:46:51;1.50;;;1.40;;
23702;SDS011;12030;50.376;8.762;2023-05-07T13:49:17;2.80;;;1.47;;
23702;SDS011;12030;50.376;8.762;2023-05-07T13:51:42;1.90;;;1.50;;
23702;SDS011;12030;50.376;8.762;2023-05-07T13:54:08;2.10;;;1.60;;
23702;SDS011;12030;50.376;8.762;2023-05-07T13:56:33;2.00;;;1.50;;
23702;SDS011;12030;50.376;8.762;2023-05-07T13:58:59;1.80;;;1.50;;
23702;SDS011;12030;50.376;8.762;2023-05-07T14:01:24;2.50;;;1.40;;
23702;SDS011;12030;50.376;8.762;2023-05-07T14:03:50;1.70;;;1.60;;
23702;SDS011;12030;50.376;8.762;2023-05-07T14:06:15;4.17;;;1.50;;
23702;SDS011;12030;50.376;8.762;2023-05-07T14:08:41;1.80;;;1.60;;
23702;SDS011;12030;50.376;8.762;2023-05-07T14:11:07;1.80;;;1.70;;
23702;SDS011;12030;50.376;8.762;2023-05-07T14:13:32;2.70;;;1.63;;
23702;SDS011;12030;50.376;8.762;2023-05-07T14:15:59;2.23;;;1.57;;
23702;SDS011;12030;50.376;8.762;2023-05-07T14:18:25;1.80;;;1.53;;
23702;SDS011;12030;50.376;8.762;2023-05-07T14:20:51;1.30;;;1.20;;
23702;SDS011;12030;50.376;8.762;2023-05-07T14:23:17;1.60;;;1.43;;
23702;SDS011;12030;50.376;8.762;2023-05-07T14:25:44;2.80;;;1.53;;
23702;SDS011;12030;50.376;8.762;2023-05-07T14:28:12;2.17;;;1.20;;
23702;SDS011;12030;50.376;8.762;2023-05-07T14:30:38;1.50;;;1.40;;
23702;SDS011;12030;50.376;8.762;2023-05-07T14:33:03;2.70;;;1.37;;
23702;SDS011;12030;50.376;8.762;2023-05-07T14:35:29;1.30;;;1.20;;
23702;SDS011;12030;50.376;8.762;2023-05-07T14:37:54;2.17;;;1.30;;
23702;SDS011;12030;50.376;8.762;2023-05-07T14:40:20;2.03;;;1.20;;
23702;SDS011;12030;50.376;8.762;2023-05-07T14:42:45;1.47;;;1.37;;
23702;SDS011;12030;50.376;8.762;2023-05-07T14:45:11;1.83;;;1.37;;
23702;SDS011;12030;50.376;8.762;2023-05-07T14:47:36;2.17;;;1.40;;
23702;SDS011;12030;50.376;8.762;2023-05-07T14:50:02;3.40;;;1.30;;
23702;SDS011;12030;50.376;8.762;2023-05-07T14:52:28;1.43;;;1.23;;
23702;SDS011;12030;50.376;8.762;2023-05-07T14:54:53;1.70;;;1.17;;
23702;SDS011;12030;50.376;8.762;2023-05-07T14:57:18;2.23;;;1.20;;
23702;SDS011;12030;50.376;8.762;2023-05-07T14:59:44;2.07;;;1.20;;
23702;SDS011;12030;50.376;8.762;2023-05-07T15:02:11;1.10;;;1.00;;